sensor_id;sensor_type;location;lat;lon;timestamp;temperature;humidity
17774;DHT22;9011;33.236;-97.118;2022-07-18T00:02:16;41.60;69.00
17774;DHT22;9011;33.236;-97.118;2022-07-18T00:04:46;41.60;69.10
17774;DHT22;9011;33.236;-97.118;2022-07-18T00:07:15;41.20;69.10
17774;DHT22;9011;33.236;-97.118;2022-07-18T00:09:44;41.30;68.60
17774;DHT22;9011;33.236;-97.118;2022-07-18T00:12:12;41.50;68.20
17774;DHT22;9011;33.236;-97.118;2022-07-18T00:14:41;41.30;68.60
17774;DHT22;9011;33.236;-97.118;2022-07-18T00:17:10;41.60;68.30
17774;DHT22;9011;33.236;-97.118;2022-07-18T00:19:38;41.30;68.50
17774;DHT22;9011;33.236;-97.118;2022-07-18T00:22:08;41.30;68.20
17774;DHT22;9011;33.236;-97.118;2022-07-18T00:24:37;41.20;68.40
17774;DHT22;9011;33.236;-97.118;2022-07-18T00:27:06;41.20;68.40
17774;DHT22;9011;33.236;-97.118;2022-07-18T00:29:35;41.10;68.90
17774;DHT22;9011;33.236;-97.118;2022-07-18T00:32:04;40.60;69.80
17774;DHT22;9011;33.236;-97.118;2022-07-18T00:34:34;40.70;69.70
17774;DHT22;9011;33.236;-97.118;2022-07-18T00:37:02;40.70;69.90
17774;DHT22;9011;33.236;-97.118;2022-07-18T00:39:33;40.60;69.60
17774;DHT22;9011;33.236;-97.118;2022-07-18T00:42:01;40.60;69.50
17774;DHT22;9011;33.236;-97.118;2022-07-18T00:44:29;40.20;70.40
17774;DHT22;9011;33.236;-97.118;2022-07-18T00:47:00;40.30;70.20
17774;DHT22;9011;33.236;-97.118;2022-07-18T00:49:29;40.40;69.90
17774;DHT22;9011;33.236;-97.118;2022-07-18T00:51:57;40.20;70.20
17774;DHT22;9011;33.236;-97.118;2022-07-18T00:54:26;40.30;70.20
17774;DHT22;9011;33.236;-97.118;2022-07-18T00:56:56;40.30;70.40
17774;DHT22;9011;33.236;-97.118;2022-07-18T00:59:25;40.00;70.70
17774;DHT22;9011;33.236;-97.118;2022-07-18T01:02:14;40.00;70.40
17774;DHT22;9011;33.236;-97.118;2022-07-18T01:04:42;39.90;70.30
17774;DHT22;9011;33.236;-97.118;2022-07-18T01:07:11;39.80;70.10
17774;DHT22;9011;33.236;-97.118;2022-07-18T01:09:40;39.70;70.40
17774;DHT22;9011;33.236;-97.118;2022-07-18T01:12:11;39.40;70.70
17774;DHT22;9011;33.236;-97.118;2022-07-18T01:14:40;39.50;71.00
17774;DHT22;9011;33.236;-97.118;2022-07-18T01:17:15;39.40;71.40
17774;DHT22;9011;33.236;-97.118;2022-07-18T01:19:44;39.50;71.60
17774;DHT22;9011;33.236;-97.118;2022-07-18T01:22:18;39.30;72.30
17774;DHT22;9011;33.236;-97.118;2022-07-18T01:24:47;39.20;72.50
17774;DHT22;9011;33.236;-97.118;2022-07-18T01:27:17;39.30;72.30
17774;DHT22;9011;33.236;-97.118;2022-07-18T01:29:47;39.20;72.40
17774;DHT22;9011;33.236;-97.118;2022-07-18T01:32:16;39.20;72.40
17774;DHT22;9011;33.236;-97.118;2022-07-18T01:34:46;39.10;72.40
17774;DHT22;9011;33.236;-97.118;2022-07-18T01:37:16;38.80;72.80
17774;DHT22;9011;33.236;-97.118;2022-07-18T01:39:45;38.70;72.70
17774;DHT22;9011;33.236;-97.118;2022-07-18T01:42:15;38.70;73.10
17774;DHT22;9011;33.236;-97.118;2022-07-18T01:44:43;38.50;73.00
17774;DHT22;9011;33.236;-97.118;2022-07-18T01:47:12;38.40;73.10
17774;DHT22;9011;33.236;-97.118;2022-07-18T01:49:41;38.40;72.80
17774;DHT22;9011;33.236;-97.118;2022-07-18T01:52:10;38.30;73.20
17774;DHT22;9011;33.236;-97.118;2022-07-18T01:54:40;38.20;73.10
17774;DHT22;9011;33.236;-97.118;2022-07-18T01:57:08;38.20;73.10
17774;DHT22;9011;33.236;-97.118;2022-07-18T01:59:37;38.30;73.20
17774;DHT22;9011;33.236;-97.118;2022-07-18T02:02:06;38.10;73.00
17774;DHT22;9011;33.236;-97.118;2022-07-18T02:04:34;38.10;73.20
17774;DHT22;9011;33.236;-97.118;2022-07-18T02:07:20;38.10;73.30
17774;DHT22;9011;33.236;-97.118;2022-07-18T02:09:50;38.10;73.30
17774;DHT22;9011;33.236;-97.118;2022-07-18T02:12:18;38.20;73.40
17774;DHT22;9011;33.236;-97.118;2022-07-18T02:14:47;38.00;73.20
17774;DHT22;9011;33.236;-97.118;2022-07-18T02:17:15;37.90;73.50
17774;DHT22;9011;33.236;-97.118;2022-07-18T02:19:44;37.90;73.60
17774;DHT22;9011;33.236;-97.118;2022-07-18T02:22:12;37.90;73.40
17774;DHT22;9011;33.236;-97.118;2022-07-18T02:24:41;37.70;73.80
17774;DHT22;9011;33.236;-97.118;2022-07-18T02:27:11;37.50;74.00
17774;DHT22;9011;33.236;-97.118;2022-07-18T02:29:40;37.60;74.10
17774;DHT22;9011;33.236;-97.118;2022-07-18T02:32:08;37.50;74.10
17774;DHT22;9011;33.236;-97.118;2022-07-18T02:34:36;37.40;74.40
17774;DHT22;9011;33.236;-97.118;2022-07-18T02:37:05;37.30;74.50
17774;DHT22;9011;33.236;-97.118;2022-07-18T02:39:33;37.20;74.80
17774;DHT22;9011;33.236;-97.118;2022-07-18T02:42:02;37.30;74.80
17774;DHT22;9011;33.236;-97.118;2022-07-18T02:44:32;37.30;74.90
17774;DHT22;9011;33.236;-97.118;2022-07-18T02:47:01;37.30;75.20
17774;DHT22;9011;33.236;-97.118;2022-07-18T02:49:29;37.30;75.20
17774;DHT22;9011;33.236;-97.118;2022-07-18T02:51:59;37.00;76.00
17774;DHT22;9011;33.236;-97.118;2022-07-18T02:54:29;37.10;75.60
17774;DHT22;9011;33.236;-97.118;2022-07-18T02:56:58;37.10;75.60
17774;DHT22;9011;33.236;-97.118;2022-07-18T02:59:26;37.00;75.80
17774;DHT22;9011;33.236;-97.118;2022-07-18T03:01:56;37.00;75.90
17774;DHT22;9011;33.236;-97.118;2022-07-18T03:04:25;36.90;76.10
17774;DHT22;9011;33.236;-97.118;2022-07-18T03:06:53;36.80;76.00
17774;DHT22;9011;33.236;-97.118;2022-07-18T03:09:22;36.90;76.00
17774;DHT22;9011;33.236;-97.118;2022-07-18T03:11:54;36.70;76.30
17774;DHT22;9011;33.236;-97.118;2022-07-18T03:14:22;36.50;76.70
17774;DHT22;9011;33.236;-97.118;2022-07-18T03:16:51;36.40;76.50
17774;DHT22;9011;33.236;-97.118;2022-07-18T03:19:21;36.40;76.50
17774;DHT22;9011;33.236;-97.118;2022-07-18T03:21:50;36.30;76.50
17774;DHT22;9011;33.236;-97.118;2022-07-18T03:24:18;36.20;76.70
17774;DHT22;9011;33.236;-97.118;2022-07-18T03:26:47;36.10;76.70
17774;DHT22;9011;33.236;-97.118;2022-07-18T03:29:15;36.10;76.50
17774;DHT22;9011;33.236;-97.118;2022-07-18T03:31:43;36.00;76.80
17774;DHT22;9011;33.236;-97.118;2022-07-18T03:34:12;36.00;76.40
17774;DHT22;9011;33.236;-97.118;2022-07-18T03:36:42;36.10;76.70
17774;DHT22;9011;33.236;-97.118;2022-07-18T03:39:11;36.00;76.90
17774;DHT22;9011;33.236;-97.118;2022-07-18T03:41:39;36.00;76.50
17774;DHT22;9011;33.236;-97.118;2022-07-18T03:44:08;35.80;76.80
17774;DHT22;9011;33.236;-97.118;2022-07-18T03:46:36;35.90;76.90
17774;DHT22;9011;33.236;-97.118;2022-07-18T03:49:05;35.80;76.90
17774;DHT22;9011;33.236;-97.118;2022-07-18T03:51:33;35.90;76.70
17774;DHT22;9011;33.236;-97.118;2022-07-18T03:54:03;35.70;76.40
17774;DHT22;9011;33.236;-97.118;2022-07-18T03:56:32;35.60;76.50
17774;DHT22;9011;33.236;-97.118;2022-07-18T03:59:00;35.60;76.50
17774;DHT22;9011;33.236;-97.118;2022-07-18T04:01:28;35.60;76.60
17774;DHT22;9011;33.236;-97.118;2022-07-18T04:03:57;35.60;76.50
17774;DHT22;9011;33.236;-97.118;2022-07-18T04:06:25;35.60;76.30
17774;DHT22;9011;33.236;-97.118;2022-07-18T04:08:54;35.60;76.70
17774;DHT22;9011;33.236;-97.118;2022-07-18T04:11:24;35.60;76.50
17774;DHT22;9011;33.236;-97.118;2022-07-18T04:13:53;35.60;76.50
17774;DHT22;9011;33.236;-97.118;2022-07-18T04:16:21;35.60;76.40
17774;DHT22;9011;33.236;-97.118;2022-07-18T04:18:51;35.40;76.80
17774;DHT22;9011;33.236;-97.118;2022-07-18T04:21:19;35.40;76.60
17774;DHT22;9011;33.236;-97.118;2022-07-18T04:23:48;35.40;77.50
17774;DHT22;9011;33.236;-97.118;2022-07-18T04:26:17;35.40;76.50
17774;DHT22;9011;33.236;-97.118;2022-07-18T04:28:47;35.40;76.60
17774;DHT22;9011;33.236;-97.118;2022-07-18T04:31:15;35.40;76.60
17774;DHT22;9011;33.236;-97.118;2022-07-18T04:33:44;35.30;76.80
17774;DHT22;9011;33.236;-97.118;2022-07-18T04:36:12;35.20;76.80
17774;DHT22;9011;33.236;-97.118;2022-07-18T04:38:40;35.00;76.90
17774;DHT22;9011;33.236;-97.118;2022-07-18T04:41:09;35.10;77.00
17774;DHT22;9011;33.236;-97.118;2022-07-18T04:43:38;35.00;77.40
17774;DHT22;9011;33.236;-97.118;2022-07-18T04:46:08;34.80;77.50
17774;DHT22;9011;33.236;-97.118;2022-07-18T04:48:36;34.70;77.70
17774;DHT22;9011;33.236;-97.118;2022-07-18T04:51:05;34.80;77.70
17774;DHT22;9011;33.236;-97.118;2022-07-18T04:53:33;34.90;77.80
17774;DHT22;9011;33.236;-97.118;2022-07-18T04:56:02;34.80;77.70
17774;DHT22;9011;33.236;-97.118;2022-07-18T04:58:30;34.80;77.70
17774;DHT22;9011;33.236;-97.118;2022-07-18T05:00:59;34.80;77.70
17774;DHT22;9011;33.236;-97.118;2022-07-18T05:03:29;34.80;77.70
17774;DHT22;9011;33.236;-97.118;2022-07-18T05:05:57;34.70;77.70
17774;DHT22;9011;33.236;-97.118;2022-07-18T05:08:26;34.70;77.70
17774;DHT22;9011;33.236;-97.118;2022-07-18T05:10:54;34.60;77.60
17774;DHT22;9011;33.236;-97.118;2022-07-18T05:13:22;34.60;77.60
17774;DHT22;9011;33.236;-97.118;2022-07-18T05:15:51;34.60;77.90
17774;DHT22;9011;33.236;-97.118;2022-07-18T05:18:19;34.60;78.20
17774;DHT22;9011;33.236;-97.118;2022-07-18T05:20:49;34.50;78.30
17774;DHT22;9011;33.236;-97.118;2022-07-18T05:23:19;34.40;78.30
17774;DHT22;9011;33.236;-97.118;2022-07-18T05:25:50;34.50;78.20
17774;DHT22;9011;33.236;-97.118;2022-07-18T05:28:19;34.40;78.30
17774;DHT22;9011;33.236;-97.118;2022-07-18T05:30:47;34.50;78.30
17774;DHT22;9011;33.236;-97.118;2022-07-18T05:33:16;34.40;78.50
17774;DHT22;9011;33.236;-97.118;2022-07-18T05:35:44;34.40;78.70
17774;DHT22;9011;33.236;-97.118;2022-07-18T05:38:14;34.30;78.80
17774;DHT22;9011;33.236;-97.118;2022-07-18T05:40:43;34.20;79.00
17774;DHT22;9011;33.236;-97.118;2022-07-18T05:43:11;34.20;79.00
17774;DHT22;9011;33.236;-97.118;2022-07-18T05:45:40;34.10;79.00
17774;DHT22;9011;33.236;-97.118;2022-07-18T05:48:08;34.20;79.20
17774;DHT22;9011;33.236;-97.118;2022-07-18T05:50:37;34.00;79.10
17774;DHT22;9011;33.236;-97.118;2022-07-18T05:53:05;34.10;79.30
17774;DHT22;9011;33.236;-97.118;2022-07-18T05:55:36;34.00;79.40
17774;DHT22;9011;33.236;-97.118;2022-07-18T05:58:04;34.00;79.50
17774;DHT22;9011;33.236;-97.118;2022-07-18T06:00:33;34.00;79.40
17774;DHT22;9011;33.236;-97.118;2022-07-18T06:03:01;33.90;79.40
17774;DHT22;9011;33.236;-97.118;2022-07-18T06:05:31;33.80;79.40
17774;DHT22;9011;33.236;-97.118;2022-07-18T06:07:59;33.90;79.40
17774;DHT22;9011;33.236;-97.118;2022-07-18T06:10:27;33.80;79.60
17774;DHT22;9011;33.236;-97.118;2022-07-18T06:12:57;33.80;79.60
17774;DHT22;9011;33.236;-97.118;2022-07-18T06:15:26;33.70;79.70
17774;DHT22;9011;33.236;-97.118;2022-07-18T06:17:54;33.60;79.80
17774;DHT22;9011;33.236;-97.118;2022-07-18T06:20:23;33.60;79.90
17774;DHT22;9011;33.236;-97.118;2022-07-18T06:22:51;33.60;80.00
17774;DHT22;9011;33.236;-97.118;2022-07-18T06:25:19;33.60;79.80
17774;DHT22;9011;33.236;-97.118;2022-07-18T06:27:48;33.60;79.60
17774;DHT22;9011;33.236;-97.118;2022-07-18T06:30:18;33.60;80.00
17774;DHT22;9011;33.236;-97.118;2022-07-18T06:32:49;33.60;80.00
17774;DHT22;9011;33.236;-97.118;2022-07-18T06:35:17;33.60;79.80
17774;DHT22;9011;33.236;-97.118;2022-07-18T06:37:46;33.60;79.70
17774;DHT22;9011;33.236;-97.118;2022-07-18T06:40:14;33.60;80.00
17774;DHT22;9011;33.236;-97.118;2022-07-18T06:42:43;33.60;79.80
17774;DHT22;9011;33.236;-97.118;2022-07-18T06:45:12;33.60;79.80
17774;DHT22;9011;33.236;-97.118;2022-07-18T06:47:43;33.50;80.00
17774;DHT22;9011;33.236;-97.118;2022-07-18T06:50:12;33.50;80.00
17774;DHT22;9011;33.236;-97.118;2022-07-18T06:52:43;33.50;80.00
17774;DHT22;9011;33.236;-97.118;2022-07-18T06:55:13;33.40;79.90
17774;DHT22;9011;33.236;-97.118;2022-07-18T06:57:41;33.40;80.00
17774;DHT22;9011;33.236;-97.118;2022-07-18T07:00:12;33.40;80.00
17774;DHT22;9011;33.236;-97.118;2022-07-18T07:02:43;33.50;80.00
17774;DHT22;9011;33.236;-97.118;2022-07-18T07:05:13;33.40;80.00
17774;DHT22;9011;33.236;-97.118;2022-07-18T07:07:42;33.40;80.00
17774;DHT22;9011;33.236;-97.118;2022-07-18T07:10:10;33.40;80.30
17774;DHT22;9011;33.236;-97.118;2022-07-18T07:12:40;33.30;80.40
17774;DHT22;9011;33.236;-97.118;2022-07-18T07:15:09;33.40;80.50
17774;DHT22;9011;33.236;-97.118;2022-07-18T07:17:38;33.20;80.60
17774;DHT22;9011;33.236;-97.118;2022-07-18T07:20:09;33.20;80.90
17774;DHT22;9011;33.236;-97.118;2022-07-18T07:22:44;33.20;80.90
17774;DHT22;9011;33.236;-97.118;2022-07-18T07:25:13;33.10;81.20
17774;DHT22;9011;33.236;-97.118;2022-07-18T07:27:43;33.20;81.10
17774;DHT22;9011;33.236;-97.118;2022-07-18T07:30:12;33.10;81.20
17774;DHT22;9011;33.236;-97.118;2022-07-18T07:32:42;33.10;81.30
17774;DHT22;9011;33.236;-97.118;2022-07-18T07:35:14;33.00;81.40
17774;DHT22;9011;33.236;-97.118;2022-07-18T07:37:44;33.00;81.60
17774;DHT22;9011;33.236;-97.118;2022-07-18T07:40:13;33.00;81.40
17774;DHT22;9011;33.236;-97.118;2022-07-18T07:42:42;32.90;81.40
17774;DHT22;9011;33.236;-97.118;2022-07-18T07:45:11;32.90;81.60
17774;DHT22;9011;33.236;-97.118;2022-07-18T07:47:40;32.90;81.60
17774;DHT22;9011;33.236;-97.118;2022-07-18T07:50:10;32.80;81.70
17774;DHT22;9011;33.236;-97.118;2022-07-18T07:52:41;32.80;81.70
17774;DHT22;9011;33.236;-97.118;2022-07-18T07:55:09;32.80;81.80
17774;DHT22;9011;33.236;-97.118;2022-07-18T07:57:38;32.70;81.90
17774;DHT22;9011;33.236;-97.118;2022-07-18T08:00:07;32.70;81.80
17774;DHT22;9011;33.236;-97.118;2022-07-18T08:02:36;32.70;82.20
17774;DHT22;9011;33.236;-97.118;2022-07-18T08:05:05;32.70;82.00
17774;DHT22;9011;33.236;-97.118;2022-07-18T08:07:34;32.70;81.90
17774;DHT22;9011;33.236;-97.118;2022-07-18T08:10:04;32.70;82.10
17774;DHT22;9011;33.236;-97.118;2022-07-18T08:12:33;32.70;82.00
17774;DHT22;9011;33.236;-97.118;2022-07-18T08:15:01;32.70;82.30
17774;DHT22;9011;33.236;-97.118;2022-07-18T08:17:30;32.70;82.20
17774;DHT22;9011;33.236;-97.118;2022-07-18T08:19:58;32.70;82.10
17774;DHT22;9011;33.236;-97.118;2022-07-18T08:22:27;32.60;82.40
17774;DHT22;9011;33.236;-97.118;2022-07-18T08:24:55;32.70;82.50
17774;DHT22;9011;33.236;-97.118;2022-07-18T08:27:25;32.60;82.60
17774;DHT22;9011;33.236;-97.118;2022-07-18T08:29:53;32.60;82.70
17774;DHT22;9011;33.236;-97.118;2022-07-18T08:32:22;32.60;82.60
17774;DHT22;9011;33.236;-97.118;2022-07-18T08:34:50;32.60;82.60
17774;DHT22;9011;33.236;-97.118;2022-07-18T08:37:20;32.60;82.70
17774;DHT22;9011;33.236;-97.118;2022-07-18T08:39:48;32.60;82.60
17774;DHT22;9011;33.236;-97.118;2022-07-18T08:42:19;32.40;82.80
17774;DHT22;9011;33.236;-97.118;2022-07-18T08:44:52;32.30;82.90
17774;DHT22;9011;33.236;-97.118;2022-07-18T08:47:22;32.30;83.10
17774;DHT22;9011;33.236;-97.118;2022-07-18T08:49:51;32.30;82.90
17774;DHT22;9011;33.236;-97.118;2022-07-18T08:52:21;32.40;83.00
17774;DHT22;9011;33.236;-97.118;2022-07-18T08:54:49;32.20;83.00
17774;DHT22;9011;33.236;-97.118;2022-07-18T08:57:18;32.30;83.10
17774;DHT22;9011;33.236;-97.118;2022-07-18T08:59:46;32.30;83.10
17774;DHT22;9011;33.236;-97.118;2022-07-18T09:02:16;32.20;83.40
17774;DHT22;9011;33.236;-97.118;2022-07-18T09:04:45;32.20;83.50
17774;DHT22;9011;33.236;-97.118;2022-07-18T09:07:25;32.20;83.50
17774;DHT22;9011;33.236;-97.118;2022-07-18T09:09:55;32.20;83.60
17774;DHT22;9011;33.236;-97.118;2022-07-18T09:12:25;32.10;83.50
17774;DHT22;9011;33.236;-97.118;2022-07-18T09:14:53;32.20;83.30
17774;DHT22;9011;33.236;-97.118;2022-07-18T09:17:25;32.10;83.30
17774;DHT22;9011;33.236;-97.118;2022-07-18T09:20:00;32.10;83.40
17774;DHT22;9011;33.236;-97.118;2022-07-18T09:22:29;32.00;83.40
17774;DHT22;9011;33.236;-97.118;2022-07-18T09:25:05;32.10;83.50
17774;DHT22;9011;33.236;-97.118;2022-07-18T09:27:36;32.00;83.60
17774;DHT22;9011;33.236;-97.118;2022-07-18T09:30:11;32.00;83.50
17774;DHT22;9011;33.236;-97.118;2022-07-18T09:32:44;31.90;83.60
17774;DHT22;9011;33.236;-97.118;2022-07-18T09:35:14;32.00;83.60
17774;DHT22;9011;33.236;-97.118;2022-07-18T09:37:53;31.90;83.70
17774;DHT22;9011;33.236;-97.118;2022-07-18T09:40:23;31.80;83.70
17774;DHT22;9011;33.236;-97.118;2022-07-18T09:42:53;31.80;84.00
17774;DHT22;9011;33.236;-97.118;2022-07-18T09:45:27;31.80;84.10
17774;DHT22;9011;33.236;-97.118;2022-07-18T09:47:58;31.80;84.30
17774;DHT22;9011;33.236;-97.118;2022-07-18T09:50:33;31.80;84.30
17774;DHT22;9011;33.236;-97.118;2022-07-18T09:53:13;31.70;84.50
17774;DHT22;9011;33.236;-97.118;2022-07-18T09:55:44;31.70;84.50
17774;DHT22;9011;33.236;-97.118;2022-07-18T09:58:16;31.70;84.50
17774;DHT22;9011;33.236;-97.118;2022-07-18T10:00:45;31.70;84.70
17774;DHT22;9011;33.236;-97.118;2022-07-18T10:03:16;31.60;84.80
17774;DHT22;9011;33.236;-97.118;2022-07-18T10:05:46;31.60;84.90
17774;DHT22;9011;33.236;-97.118;2022-07-18T10:08:17;31.60;85.20
17774;DHT22;9011;33.236;-97.118;2022-07-18T10:10:47;31.60;85.40
17774;DHT22;9011;33.236;-97.118;2022-07-18T10:13:16;31.60;85.30
17774;DHT22;9011;33.236;-97.118;2022-07-18T10:15:46;31.60;85.30
17774;DHT22;9011;33.236;-97.118;2022-07-18T10:18:20;31.60;85.30
17774;DHT22;9011;33.236;-97.118;2022-07-18T10:20:52;31.60;85.60
17774;DHT22;9011;33.236;-97.118;2022-07-18T10:23:23;31.40;85.80
17774;DHT22;9011;33.236;-97.118;2022-07-18T10:26:10;31.40;86.10
17774;DHT22;9011;33.236;-97.118;2022-07-18T10:29:09;31.40;86.30
17774;DHT22;9011;33.236;-97.118;2022-07-18T10:31:39;31.30;86.50
17774;DHT22;9011;33.236;-97.118;2022-07-18T10:34:13;31.30;86.60
17774;DHT22;9011;33.236;-97.118;2022-07-18T10:37:09;31.30;86.80
17774;DHT22;9011;33.236;-97.118;2022-07-18T10:39:39;31.20;87.10
17774;DHT22;9011;33.236;-97.118;2022-07-18T10:42:16;31.10;87.10
17774;DHT22;9011;33.236;-97.118;2022-07-18T10:44:45;31.10;87.40
17774;DHT22;9011;33.236;-97.118;2022-07-18T10:47:16;31.10;87.50
17774;DHT22;9011;33.236;-97.118;2022-07-18T10:50:08;31.10;87.70
17774;DHT22;9011;33.236;-97.118;2022-07-18T10:52:55;31.00;88.00
17774;DHT22;9011;33.236;-97.118;2022-07-18T10:55:29;31.00;88.10
17774;DHT22;9011;33.236;-97.118;2022-07-18T10:58:21;31.10;88.30
17774;DHT22;9011;33.236;-97.118;2022-07-18T11:00:52;31.00;88.50
17774;DHT22;9011;33.236;-97.118;2022-07-18T11:03:28;31.00;88.70
17774;DHT22;9011;33.236;-97.118;2022-07-18T11:05:59;30.90;88.80
17774;DHT22;9011;33.236;-97.118;2022-07-18T11:08:30;30.80;89.10
17774;DHT22;9011;33.236;-97.118;2022-07-18T11:11:10;30.80;89.30
17774;DHT22;9011;33.236;-97.118;2022-07-18T11:13:43;30.70;89.50
17774;DHT22;9011;33.236;-97.118;2022-07-18T11:16:17;30.70;90.30
17774;DHT22;9011;33.236;-97.118;2022-07-18T11:21:59;30.70;89.80
17774;DHT22;9011;33.236;-97.118;2022-07-18T11:24:28;30.60;90.00
17774;DHT22;9011;33.236;-97.118;2022-07-18T11:26:56;30.50;90.10
17774;DHT22;9011;33.236;-97.118;2022-07-18T11:29:25;30.50;90.30
17774;DHT22;9011;33.236;-97.118;2022-07-18T11:31:54;30.50;90.40
17774;DHT22;9011;33.236;-97.118;2022-07-18T11:34:24;30.50;90.40
17774;DHT22;9011;33.236;-97.118;2022-07-18T11:36:53;30.40;90.40
17774;DHT22;9011;33.236;-97.118;2022-07-18T11:39:32;30.50;90.40
17774;DHT22;9011;33.236;-97.118;2022-07-18T11:42:01;30.40;90.70
17774;DHT22;9011;33.236;-97.118;2022-07-18T11:44:31;30.50;90.50
17774;DHT22;9011;33.236;-97.118;2022-07-18T11:47:04;30.40;90.50
17774;DHT22;9011;33.236;-97.118;2022-07-18T11:49:34;30.40;90.70
17774;DHT22;9011;33.236;-97.118;2022-07-18T11:52:02;30.40;90.80
17774;DHT22;9011;33.236;-97.118;2022-07-18T11:54:33;30.30;90.80
17774;DHT22;9011;33.236;-97.118;2022-07-18T11:57:02;30.40;90.90
17774;DHT22;9011;33.236;-97.118;2022-07-18T11:59:39;30.40;90.90
17774;DHT22;9011;33.236;-97.118;2022-07-18T12:02:08;30.40;91.00
17774;DHT22;9011;33.236;-97.118;2022-07-18T12:04:37;30.30;91.20
17774;DHT22;9011;33.236;-97.118;2022-07-18T12:07:16;30.30;91.30
17774;DHT22;9011;33.236;-97.118;2022-07-18T12:09:47;30.20;91.30
17774;DHT22;9011;33.236;-97.118;2022-07-18T12:12:16;30.20;91.50
17774;DHT22;9011;33.236;-97.118;2022-07-18T12:14:54;30.20;91.70
17774;DHT22;9011;33.236;-97.118;2022-07-18T12:17:22;30.30;91.80
17774;DHT22;9011;33.236;-97.118;2022-07-18T12:19:50;30.20;91.90
17774;DHT22;9011;33.236;-97.118;2022-07-18T12:22:19;30.30;91.90
17774;DHT22;9011;33.236;-97.118;2022-07-18T12:24:53;30.30;92.00
17774;DHT22;9011;33.236;-97.118;2022-07-18T12:27:24;30.20;92.10
17774;DHT22;9011;33.236;-97.118;2022-07-18T12:30:07;30.30;92.10
17774;DHT22;9011;33.236;-97.118;2022-07-18T12:32:44;30.30;92.10
17774;DHT22;9011;33.236;-97.118;2022-07-18T12:35:15;30.30;92.30
17774;DHT22;9011;33.236;-97.118;2022-07-18T12:37:55;30.30;92.40
17774;DHT22;9011;33.236;-97.118;2022-07-18T12:40:42;30.30;92.40
17774;DHT22;9011;33.236;-97.118;2022-07-18T12:43:13;30.40;92.50
17774;DHT22;9011;33.236;-97.118;2022-07-18T12:45:43;30.40;92.50
17774;DHT22;9011;33.236;-97.118;2022-07-18T12:48:12;30.40;92.40
17774;DHT22;9011;33.236;-97.118;2022-07-18T12:50:41;30.40;92.50
17774;DHT22;9011;33.236;-97.118;2022-07-18T12:53:11;30.50;92.40
17774;DHT22;9011;33.236;-97.118;2022-07-18T12:55:41;30.50;92.50
17774;DHT22;9011;33.236;-97.118;2022-07-18T12:58:10;30.60;92.40
17774;DHT22;9011;33.236;-97.118;2022-07-18T13:00:38;30.60;92.50
17774;DHT22;9011;33.236;-97.118;2022-07-18T13:03:06;30.60;92.50
17774;DHT22;9011;33.236;-97.118;2022-07-18T13:05:35;30.60;92.30
17774;DHT22;9011;33.236;-97.118;2022-07-18T13:08:04;30.70;92.50
17774;DHT22;9011;33.236;-97.118;2022-07-18T13:10:34;30.70;92.40
17774;DHT22;9011;33.236;-97.118;2022-07-18T13:13:05;30.80;92.50
17774;DHT22;9011;33.236;-97.118;2022-07-18T13:15:34;30.80;92.30
17774;DHT22;9011;33.236;-97.118;2022-07-18T13:18:03;30.90;92.40
17774;DHT22;9011;33.236;-97.118;2022-07-18T13:20:32;30.90;92.30
17774;DHT22;9011;33.236;-97.118;2022-07-18T13:23:00;30.90;92.20
17774;DHT22;9011;33.236;-97.118;2022-07-18T13:25:30;31.00;92.20
17774;DHT22;9011;33.236;-97.118;2022-07-18T13:28:00;31.00;92.10
17774;DHT22;9011;33.236;-97.118;2022-07-18T13:30:30;31.00;92.10
17774;DHT22;9011;33.236;-97.118;2022-07-18T13:32:58;31.10;92.10
17774;DHT22;9011;33.236;-97.118;2022-07-18T13:35:27;31.20;92.10
17774;DHT22;9011;33.236;-97.118;2022-07-18T13:37:56;31.30;92.10
17774;DHT22;9011;33.236;-97.118;2022-07-18T13:40:24;31.40;91.90
17774;DHT22;9011;33.236;-97.118;2022-07-18T13:42:52;31.50;91.90
17774;DHT22;9011;33.236;-97.118;2022-07-18T13:45:21;31.60;91.80
17774;DHT22;9011;33.236;-97.118;2022-07-18T13:47:51;31.70;91.80
17774;DHT22;9011;33.236;-97.118;2022-07-18T13:50:19;31.80;91.50
17774;DHT22;9011;33.236;-97.118;2022-07-18T13:52:48;31.80;91.70
17774;DHT22;9011;33.236;-97.118;2022-07-18T13:55:16;32.00;91.40
17774;DHT22;9011;33.236;-97.118;2022-07-18T13:57:45;32.10;91.40
17774;DHT22;9011;33.236;-97.118;2022-07-18T14:00:14;32.10;91.00
17774;DHT22;9011;33.236;-97.118;2022-07-18T14:02:44;32.20;91.20
17774;DHT22;9011;33.236;-97.118;2022-07-18T14:05:14;32.30;91.00
17774;DHT22;9011;33.236;-97.118;2022-07-18T14:07:43;32.40;91.00
17774;DHT22;9011;33.236;-97.118;2022-07-18T14:10:13;32.60;90.80
17774;DHT22;9011;33.236;-97.118;2022-07-18T14:12:42;32.70;90.60
17774;DHT22;9011;33.236;-97.118;2022-07-18T14:15:11;32.60;90.00
17774;DHT22;9011;33.236;-97.118;2022-07-18T14:17:40;32.70;90.10
17774;DHT22;9011;33.236;-97.118;2022-07-18T14:20:09;32.80;90.10
17774;DHT22;9011;33.236;-97.118;2022-07-18T14:22:40;32.90;90.00
17774;DHT22;9011;33.236;-97.118;2022-07-18T14:25:10;33.00;89.70
17774;DHT22;9011;33.236;-97.118;2022-07-18T14:27:39;33.10;90.00
17774;DHT22;9011;33.236;-97.118;2022-07-18T14:30:10;33.30;89.70
17774;DHT22;9011;33.236;-97.118;2022-07-18T14:32:38;33.40;88.80
17774;DHT22;9011;33.236;-97.118;2022-07-18T14:35:08;33.50;88.60
17774;DHT22;9011;33.236;-97.118;2022-07-18T14:37:37;33.70;88.00
17774;DHT22;9011;33.236;-97.118;2022-07-18T14:40:08;33.90;87.30
17774;DHT22;9011;33.236;-97.118;2022-07-18T14:42:37;34.00;88.20
17774;DHT22;9011;33.236;-97.118;2022-07-18T14:45:06;34.20;87.00
17774;DHT22;9011;33.236;-97.118;2022-07-18T14:47:35;34.40;86.90
17774;DHT22;9011;33.236;-97.118;2022-07-18T14:50:04;34.40;86.60
17774;DHT22;9011;33.236;-97.118;2022-07-18T14:52:33;34.60;85.90
17774;DHT22;9011;33.236;-97.118;2022-07-18T14:55:02;34.70;85.60
17774;DHT22;9011;33.236;-97.118;2022-07-18T14:57:32;34.80;83.70
17774;DHT22;9011;33.236;-97.118;2022-07-18T15:00:01;34.90;83.10
17774;DHT22;9011;33.236;-97.118;2022-07-18T15:02:29;35.10;83.00
17774;DHT22;9011;33.236;-97.118;2022-07-18T15:04:58;35.10;82.60
17774;DHT22;9011;33.236;-97.118;2022-07-18T15:07:26;35.00;81.80
17774;DHT22;9011;33.236;-97.118;2022-07-18T15:09:55;35.20;82.60
17774;DHT22;9011;33.236;-97.118;2022-07-18T15:12:24;35.40;82.60
17774;DHT22;9011;33.236;-97.118;2022-07-18T15:14:56;35.40;81.20
17774;DHT22;9011;33.236;-97.118;2022-07-18T15:17:25;35.40;80.80
17774;DHT22;9011;33.236;-97.118;2022-07-18T15:19:53;35.60;80.40
17774;DHT22;9011;33.236;-97.118;2022-07-18T15:22:22;35.80;80.90
17774;DHT22;9011;33.236;-97.118;2022-07-18T15:24:50;35.90;79.70
17774;DHT22;9011;33.236;-97.118;2022-07-18T15:27:19;36.00;79.10
17774;DHT22;9011;33.236;-97.118;2022-07-18T15:29:47;36.20;79.30
17774;DHT22;9011;33.236;-97.118;2022-07-18T15:32:17;36.20;78.50
17774;DHT22;9011;33.236;-97.118;2022-07-18T15:34:46;36.50;78.90
17774;DHT22;9011;33.236;-97.118;2022-07-18T15:37:14;36.70;78.50